Time;durP1;ratioP1;P1;durP2;ratioP2;P2;SDS_P1;SDS_P2;PMS_P1;PMS_P2;Temp;Humidity;BMP_temperature;BMP_pressure;BME280_temperature;BME280_humidity;BME280_pressure;Samples;Min_cycle;Max_cycle;Signal;HPM_P1;HPM_P2
2023/03/15 00:00:38;;;;;;;16.63;2.63;;;;;;;;;;4994230;28;20038;-65
2023/03/15 00:03:06;;;;;;;22.20;2.17;;;;;;;;;;4982841;28;20054;-66
2023/03/15 00:05:33;;;;;;;14.00;2.13;;;;;;;;;;4994437;28;20840;-64
2023/03/15 00:07:59;;;;;;;17.80;2.20;;;;;;;;;;4999765;28;20042;-65
2023/03/15 00:10:24;;;;;;;13.07;1.75;;;;;;;;;;5002304;28;20703;-65
2023/03/15 00:12:49;;;;;;;14.35;2.10;;;;;;;;;;5008567;28;20728;-65
2023/03/15 00:15:17;;;;;;;16.50;2.40;;;;;;;;;;5008318;28;20044;-65
2023/03/15 00:17:45;;;;;;;12.15;1.98;;;;;;;;;;5007767;28;20124;-65
2023/03/15 00:20:11;;;;;;;16.05;2.40;;;;;;;;;;5012664;28;20041;-65
2023/03/15 00:22:36;;;;;;;20.13;2.20;;;;;;;;;;5009563;28;20041;-66
2023/03/15 00:25:01;;;;;;;16.60;2.78;;;;;;;;;;5014565;28;20038;-65
2023/03/15 00:27:29;;;;;;;19.50;2.80;;;;;;;;;;5003709;28;20832;-65
2023/03/15 00:29:54;;;;;;;17.85;2.30;;;;;;;;;;5002311;28;20116;-66
2023/03/15 00:32:22;;;;;;;16.10;2.42;;;;;;;;;;5032926;28;20049;-65
2023/03/15 00:34:47;;;;;;;18.02;2.67;;;;;;;;;;5006375;28;20046;-64
2023/03/15 00:37:16;;;;;;;10.55;1.92;;;;;;;;;;5014385;28;20076;-64
2023/03/15 00:39:44;;;;;;;18.83;2.28;;;;;;;;;;5010359;28;20271;-64
2023/03/15 00:42:10;;;;;;;12.00;1.80;;;;;;;;;;5017595;28;20745;-65
2023/03/15 00:44:35;;;;;;;18.63;2.50;;;;;;;;;;5010585;28;20124;-66
2023/03/15 00:47:01;;;;;;;17.15;2.35;;;;;;;;;;5021896;28;20140;-64
2023/03/15 00:49:28;;;;;;;16.08;2.50;;;;;;;;;;5007001;28;20037;-64
2023/03/15 00:51:54;;;;;;;14.68;2.50;;;;;;;;;;5009538;28;20038;-64
2023/03/15 00:54:22;;;;;;;18.38;2.53;;;;;;;;;;5010799;28;20052;-64
2023/03/15 00:56:48;;;;;;;16.70;2.50;;;;;;;;;;5004302;28;20156;-64
2023/03/15 00:59:13;;;;;;;24.55;2.70;;;;;;;;;;5033258;28;20038;-64
2023/03/15 01:01:43;;;;;;;14.65;2.28;;;;;;;;;;5002089;28;20137;-64
2023/03/15 01:04:10;;;;;;;11.45;2.00;;;;;;;;;;5009768;28;20111;-65
2023/03/15 01:06:36;;;;;;;20.65;2.85;;;;;;;;;;5011729;28;20487;-66
2023/03/15 01:09:01;;;;;;;17.33;2.45;;;;;;;;;;5008679;28;20046;-66
2023/03/15 01:11:27;;;;;;;19.75;3.08;;;;;;;;;;5036188;28;20026;-65
2023/03/15 01:13:53;;;;;;;13.13;3.72;;;;;;;;;;5038667;28;20133;-65
2023/03/15 01:16:20;;;;;;;19.15;2.78;;;;;;;;;;5003685;28;20026;-65
2023/03/15 01:18:46;;;;;;;19.25;3.28;;;;;;;;;;5033510;28;20041;-64
2023/03/15 01:21:12;;;;;;;30.20;3.28;;;;;;;;;;5006600;28;20122;-65
2023/03/15 01:23:38;;;;;;;19.67;2.75;;;;;;;;;;5017560;28;20540;-65
2023/03/15 01:26:04;;;;;;;23.27;2.70;;;;;;;;;;5002945;28;20038;-64
2023/03/15 01:28:29;;;;;;;15.05;2.13;;;;;;;;;;5009236;28;20026;-65
2023/03/15 01:30:55;;;;;;;16.50;1.88;;;;;;;;;;5007234;28;20042;-65
2023/03/15 01:40:20;;;;;;;19.10;2.58;;;;;;;;;;4946086;28;20050;-65
2023/03/15 01:42:52;;;;;;;20.85;3.05;;;;;;;;;;4953333;28;20582;-65
2023/03/15 01:45:36;;;;;;;24.60;3.33;;;;;;;;;;4949266;28;20034;-64
2023/03/15 01:48:01;;;;;;;40.05;3.70;;;;;;;;;;4959866;28;20050;-64
2023/03/15 01:50:26;;;;;;;24.23;3.55;;;;;;;;;;4944446;28;20077;-65
2023/03/15 01:52:52;;;;;;;20.40;2.58;;;;;;;;;;4925635;28;20035;-64
2023/03/15 01:55:19;;;;;;;20.23;2.65;;;;;;;;;;4930454;28;20089;-64
2023/03/15 01:57:49;;;;;;;21.63;3.50;;;;;;;;;;4936909;28;20090;-64
2023/03/15 02:00:16;;;;;;;22.50;2.85;;;;;;;;;;4943274;28;20053;-64
2023/03/15 02:02:46;;;;;;;23.73;2.67;;;;;;;;;;4934661;28;20063;-64
2023/03/15 02:05:14;;;;;;;18.08;2.55;;;;;;;;;;4941552;28;20126;-65
2023/03/15 02:07:48;;;;;;;23.35;2.90;;;;;;;;;;4945128;28;20041;-66
2023/03/15 02:10:19;;;;;;;14.38;2.90;;;;;;;;;;4951937;28;20031;-63
2023/03/15 02:12:46;;;;;;;20.58;2.40;;;;;;;;;;4930501;28;20078;-65
2023/03/15 02:15:12;;;;;;;19.50;2.58;;;;;;;;;;4934051;28;20038;-64
2023/03/15 02:17:44;;;;;;;16.13;2.60;;;;;;;;;;4931107;28;20042;-65
2023/03/15 02:20:26;;;;;;;20.75;2.35;;;;;;;;;;4929707;28;20054;-64
2023/03/15 02:22:57;;;;;;;17.83;2.30;;;;;;;;;;4937270;28;20475;-64
2023/03/15 02:25:31;;;;;;;12.73;1.63;;;;;;;;;;4953860;28;20057;-63
2023/03/15 02:27:59;;;;;;;19.92;2.38;;;;;;;;;;4953665;28;20037;-64
2023/03/15 02:30:25;;;;;;;14.88;2.83;;;;;;;;;;4941418;28;20041;-64
2023/03/15 02:32:50;;;;;;;20.80;2.28;;;;;;;;;;4926542;28;20035;-64
2023/03/15 02:35:25;;;;;;;11.13;2.05;;;;;;;;;;4930240;28;20043;-64
2023/03/15 02:37:50;;;;;;;19.20;2.88;;;;;;;;;;4936680;28;20035;-64
2023/03/15 02:40:17;;;;;;;10.52;1.98;;;;;;;;;;4963623;28;20076;-64
2023/03/15 02:42:45;;;;;;;24.20;2.60;;;;;;;;;;4999973;28;20092;-65
2023/03/15 02:45:10;;;;;;;12.98;2.15;;;;;;;;;;4980920;28;20828;-65
2023/03/15 02:47:36;;;;;;;16.98;2.63;;;;;;;;;;4983915;28;20053;-65
2023/03/15 02:50:01;;;;;;;23.08;2.72;;;;;;;;;;4991643;28;20038;-65
2023/03/15 02:52:27;;;;;;;23.45;2.88;;;;;;;;;;4987282;28;20069;-64
2023/03/15 02:54:52;;;;;;;24.67;2.33;;;;;;;;;;4979129;28;20042;-65
2023/03/15 02:57:18;;;;;;;19.83;2.17;;;;;;;;;;4979165;28;20712;-64
2023/03/15 02:59:43;;;;;;;21.95;2.08;;;;;;;;;;4979130;28;20057;-64
2023/03/15 03:02:11;;;;;;;21.73;2.25;;;;;;;;;;4984747;28;20037;-64
2023/03/15 03:04:37;;;;;;;19.92;2.17;;;;;;;;;;5019779;28;20042;-65
2023/03/15 03:07:02;;;;;;;22.05;2.50;;;;;;;;;;4984655;28;20571;-65
2023/03/15 03:09:27;;;;;;;17.23;2.30;;;;;;;;;;5019586;28;20034;-64
2023/03/15 03:11:53;;;;;;;19.15;2.25;;;;;;;;;;4993091;28;20855;-65
2023/03/15 03:14:23;;;;;;;11.82;1.80;;;;;;;;;;4979937;28;20038;-64
2023/03/15 03:16:48;;;;;;;19.75;3.28;;;;;;;;;;5010673;28;20038;-64
2023/03/15 03:19:16;;;;;;;15.60;2.30;;;;;;;;;;4988597;28;20096;-64
2023/03/15 03:21:44;;;;;;;15.23;2.00;;;;;;;;;;4994872;28;20036;-65
2023/03/15 03:24:10;;;;;;;24.30;2.67;;;;;;;;;;5018391;28;20738;-65
2023/03/15 03:26:37;;;;;;;28.10;3.72;;;;;;;;;;4988223;28;20068;-64
2023/03/15 03:29:05;;;;;;;18.75;2.88;;;;;;;;;;4998071;28;20034;-65
2023/03/15 03:31:33;;;;;;;11.90;2.05;;;;;;;;;;4987320;28;20036;-66
2023/03/15 03:33:59;;;;;;;26.23;3.65;;;;;;;;;;4972383;28;20751;-65
2023/03/15 03:36:24;;;;;;;24.60;2.75;;;;;;;;;;4992304;28;20067;-65
2023/03/15 03:38:52;;;;;;;19.05;2.92;;;;;;;;;;4991193;28;20045;-64
2023/03/15 03:41:18;;;;;;;19.02;2.20;;;;;;;;;;4988706;28;22048;-64
2023/03/15 03:43:43;;;;;;;19.92;3.67;;;;;;;;;;4983101;28;20046;-64
2023/03/15 03:46:08;;;;;;;20.02;2.85;;;;;;;;;;4986027;28;20040;-66
2023/03/15 03:48:34;;;;;;;15.07;2.30;;;;;;;;;;4995041;28;20057;-64
2023/03/15 03:50:59;;;;;;;27.35;3.47;;;;;;;;;;5023413;28;20052;-64
2023/03/15 03:53:24;;;;;;;16.48;2.60;;;;;;;;;;4984291;28;20879;-64
2023/03/15 03:55:49;;;;;;;25.17;4.32;;;;;;;;;;4986455;28;20075;-64
2023/03/15 03:58:15;;;;;;;9.50;1.40;;;;;;;;;;5008272;28;20038;-65
2023/03/15 04:00:40;;;;;;;11.50;1.60;;;;;;;;;;4995732;28;20068;-66
2023/03/15 04:03:06;;;;;;;12.95;1.88;;;;;;;;;;5014760;28;20431;-67
2023/03/15 04:05:31;;;;;;;13.77;1.60;;;;;;;;;;4985815;28;20038;-64
2023/03/15 04:07:56;;;;;;;13.05;1.45;;;;;;;;;;4993281;28;20034;-64
2023/03/15 04:10:25;;;;;;;9.25;1.52;;;;;;;;;;4984109;28;20033;-64
2023/03/15 04:12:51;;;;;;;14.30;1.70;;;;;;;;;;4985991;28;20788;-65
2023/03/15 04:15:17;;;;;;;14.27;2.00;;;;;;;;;;4991550;28;20049;-64
2023/03/15 04:17:45;;;;;;;14.68;2.15;;;;;;;;;;5001314;28;20034;-65
2023/03/15 04:20:12;;;;;;;11.45;3.25;;;;;;;;;;4996030;28;20037;-65
2023/03/15 04:22:40;;;;;;;14.07;1.95;;;;;;;;;;4988387;28;20038;-65
2023/03/15 04:25:06;;;;;;;10.13;1.67;;;;;;;;;;4992902;28;20041;-65
2023/03/15 04:27:31;;;;;;;7.90;1.40;;;;;;;;;;4986123;28;20030;-65
2023/03/15 04:30:04;;;;;;;9.10;1.83;;;;;;;;;;4990722;28;20049;-64
2023/03/15 04:32:29;;;;;;;6.32;1.83;;;;;;;;;;4985389;28;20029;-64
2023/03/15 04:34:57;;;;;;;14.73;1.88;;;;;;;;;;4984780;28;20548;-64
2023/03/15 04:37:23;;;;;;;8.30;1.42;;;;;;;;;;5020900;28;20049;-64
2023/03/15 04:39:48;;;;;;;7.78;1.25;;;;;;;;;;4976702;28;20903;-64
2023/03/15 04:42:13;;;;;;;15.38;2.30;;;;;;;;;;4968796;28;20034;-65
2023/03/15 04:44:38;;;;;;;11.40;1.50;;;;;;;;;;4962064;28;20894;-64
2023/03/15 04:47:06;;;;;;;13.77;1.90;;;;;;;;;;4973977;28;20041;-64
2023/03/15 04:49:31;;;;;;;8.55;1.73;;;;;;;;;;4994890;28;20057;-64
2023/03/15 04:51:57;;;;;;;20.13;2.50;;;;;;;;;;5005191;28;20614;-65
2023/03/15 04:54:23;;;;;;;14.05;2.20;;;;;;;;;;4995551;28;20061;-64
2023/03/15 04:56:49;;;;;;;18.00;2.28;;;;;;;;;;4977854;28;20043;-63
2023/03/15 04:59:14;;;;;;;10.88;1.75;;;;;;;;;;4960368;28;20038;-64
2023/03/15 05:01:39;;;;;;;11.50;2.28;;;;;;;;;;4974283;28;20030;-64
2023/03/15 05:04:05;;;;;;;12.30;1.98;;;;;;;;;;4966900;28;20032;-63
2023/03/15 05:06:34;;;;;;;12.02;2.10;;;;;;;;;;4965731;28;20057;-63
2023/03/15 05:08:59;;;;;;;11.27;1.98;;;;;;;;;;4973620;28;20041;-63
2023/03/15 05:11:27;;;;;;;10.85;1.73;;;;;;;;;;4977399;28;20026;-63
2023/03/15 05:13:52;;;;;;;11.50;1.73;;;;;;;;;;4962656;28;20037;-63
2023/03/15 05:16:17;;;;;;;11.30;1.70;;;;;;;;;;4974592;28;20034;-63
2023/03/15 05:18:44;;;;;;;8.82;1.73;;;;;;;;;;4985656;28;20043;-62
2023/03/15 05:21:11;;;;;;;16.65;2.00;;;;;;;;;;4997624;28;20046;-63
2023/03/15 05:23:39;;;;;;;15.43;2.13;;;;;;;;;;4990463;28;20038;-62
2023/03/15 05:26:07;;;;;;;12.07;2.58;;;;;;;;;;4993453;28;20505;-63
2023/03/15 05:28:32;;;;;;;19.30;2.70;;;;;;;;;;4989410;28;20033;-63
2023/03/15 05:30:58;;;;;;;18.23;2.65;;;;;;;;;;4996384;28;20041;-63
2023/03/15 05:33:23;;;;;;;12.57;2.90;;;;;;;;;;4985611;28;20034;-64
2023/03/15 05:35:49;;;;;;;16.83;3.47;;;;;;;;;;5013979;28;20375;-62
2023/03/15 05:38:14;;;;;;;13.75;3.55;;;;;;;;;;5031342;28;20438;-63
2023/03/15 05:40:43;;;;;;;19.77;3.80;;;;;;;;;;4982545;28;20081;-62
2023/03/15 05:43:08;;;;;;;17.65;4.40;;;;;;;;;;4975309;28;20079;-63
2023/03/15 05:45:36;;;;;;;19.02;4.55;;;;;;;;;;4995648;28;20061;-62
2023/03/15 05:48:01;;;;;;;16.27;3.60;;;;;;;;;;4980925;28;20538;-62
2023/03/15 05:50:27;;;;;;;21.15;3.42;;;;;;;;;;4993193;28;20034;-63
2023/03/15 05:52:53;;;;;;;14.23;2.80;;;;;;;;;;5003769;28;20040;-63
2023/03/15 05:55:18;;;;;;;24.50;3.30;;;;;;;;;;5015767;28;20141;-62
2023/03/15 05:57:43;;;;;;;15.93;2.90;;;;;;;;;;5011960;28;20547;-63
2023/03/15 06:00:09;;;;;;;17.97;3.27;;;;;;;;;;5012539;28;20050;-63
2023/03/15 06:02:36;;;;;;;15.83;2.63;;;;;;;;;;5018595;28;20034;-64
2023/03/15 06:05:04;;;;;;;19.30;2.90;;;;;;;;;;5011882;28;20037;-68
2023/03/15 06:07:29;;;;;;;14.40;2.93;;;;;;;;;;5000609;28;20038;-68
2023/03/15 06:09:57;;;;;;;13.70;2.67;;;;;;;;;;5001889;28;20037;-68
2023/03/15 06:12:22;;;;;;;15.20;3.03;;;;;;;;;;5000885;28;20046;-68
2023/03/15 06:14:50;;;;;;;11.07;2.17;;;;;;;;;;5005619;28;20687;-69
2023/03/15 06:17:15;;;;;;;21.53;2.90;;;;;;;;;;5021188;28;20025;-68
2023/03/15 06:19:40;;;;;;;18.87;2.70;;;;;;;;;;5003989;28;20049;-69
2023/03/15 06:22:08;;;;;;;19.53;2.83;;;;;;;;;;4993571;28;20624;-68
2023/03/15 06:24:33;;;;;;;11.20;2.10;;;;;;;;;;4984141;28;20034;-67
2023/03/15 06:27:01;;;;;;;14.37;2.30;;;;;;;;;;4984215;28;20030;-69
2023/03/15 06:29:26;;;;;;;16.97;2.17;;;;;;;;;;5006008;28;20038;-68
2023/03/15 06:31:52;;;;;;;16.33;2.47;;;;;;;;;;5007885;28;20041;-68
2023/03/15 06:34:17;;;;;;;17.87;2.70;;;;;;;;;;5006941;28;20095;-68
2023/03/15 06:36:44;;;;;;;22.50;3.47;;;;;;;;;;5013017;28;20042;-68
2023/03/15 06:39:10;;;;;;;17.43;3.03;;;;;;;;;;5009775;28;20041;-68
2023/03/15 06:41:36;;;;;;;16.97;2.43;;;;;;;;;;5008185;28;20057;-65
2023/03/15 06:44:01;;;;;;;16.03;2.60;;;;;;;;;;5034522;28;20613;-68
2023/03/15 06:46:26;;;;;;;14.25;3.03;;;;;;;;;;5009873;28;20052;-69
2023/03/15 06:48:51;;;;;;;19.37;3.10;;;;;;;;;;5001066;28;21919;-68
2023/03/15 06:51:17;;;;;;;15.98;3.00;;;;;;;;;;5045145;28;20038;-69
2023/03/15 06:53:42;;;;;;;10.77;2.80;;;;;;;;;;5004794;28;20034;-69
2023/03/15 06:56:07;;;;;;;16.95;2.83;;;;;;;;;;5004764;28;20037;-69
2023/03/15 06:58:33;;;;;;;12.63;2.30;;;;;;;;;;5005737;28;20042;-69
2023/03/15 07:00:58;;;;;;;14.43;2.60;;;;;;;;;;5006472;28;20045;-69
2023/03/15 07:03:23;;;;;;;14.32;2.17;;;;;;;;;;5007489;28;20048;-69
2023/03/15 07:05:51;;;;;;;19.55;2.78;;;;;;;;;;5004839;28;20116;-68
2023/03/15 07:08:17;;;;;;;18.63;2.65;;;;;;;;;;5008321;28;20038;-70
2023/03/15 07:10:42;;;;;;;15.80;2.78;;;;;;;;;;5014244;28;20038;-69
2023/03/15 07:13:08;;;;;;;12.38;2.45;;;;;;;;;;5006391;28;20046;-69
2023/03/15 07:15:35;;;;;;;13.60;2.53;;;;;;;;;;5009438;28;20108;-70
2023/03/15 07:18:00;;;;;;;22.35;3.10;;;;;;;;;;5032869;28;20038;-68
2023/03/15 07:20:30;;;;;;;16.05;2.40;;;;;;;;;;5010032;28;20045;-68
2023/03/15 07:22:56;;;;;;;23.25;3.38;;;;;;;;;;5010851;28;20509;-68
2023/03/15 07:25:22;;;;;;;11.48;2.40;;;;;;;;;;5038703;28;23272;-68
2023/03/15 07:27:51;;;;;;;12.57;2.25;;;;;;;;;;5050268;28;20049;-69
2023/03/15 07:30:17;;;;;;;16.38;2.35;;;;;;;;;;5023734;28;22034;-68
2023/03/15 07:32:43;;;;;;;12.13;2.28;;;;;;;;;;5003900;28;20033;-67
2023/03/15 07:35:08;;;;;;;17.38;3.30;;;;;;;;;;5007000;28;20041;-68
2023/03/15 07:37:33;;;;;;;21.70;4.60;;;;;;;;;;5013089;28;20073;-68
2023/03/15 07:40:08;;;;;;;21.40;4.25;;;;;;;;;;5002331;28;20054;-66
2023/03/15 07:42:34;;;;;;;18.25;5.65;;;;;;;;;;5004876;28;20100;-67
2023/03/15 07:44:59;;;;;;;27.08;6.90;;;;;;;;;;5002352;28;20041;-68
2023/03/15 07:47:24;;;;;;;16.65;5.22;;;;;;;;;;5013645;28;20037;-68
2023/03/15 07:49:52;;;;;;;16.33;4.00;;;;;;;;;;5005602;28;20042;-69
2023/03/15 07:52:19;;;;;;;18.95;3.33;;;;;;;;;;5017586;28;20079;-67
2023/03/15 07:54:44;;;;;;;13.38;2.90;;;;;;;;;;5017250;28;20045;-69
2023/03/15 07:57:09;;;;;;;19.05;3.25;;;;;;;;;;5018785;28;20615;-68
2023/03/15 07:59:35;;;;;;;17.67;2.40;;;;;;;;;;5010157;28;20042;-70
2023/03/15 08:02:00;;;;;;;14.70;1.75;;;;;;;;;;5009522;28;20425;-68
2023/03/15 08:04:25;;;;;;;17.92;2.00;;;;;;;;;;5014543;28;20034;-70
2023/03/15 08:06:50;;;;;;;18.75;2.58;;;;;;;;;;5033533;28;20451;-69
2023/03/15 08:09:16;;;;;;;12.38;2.40;;;;;;;;;;5031450;28;20030;-69
2023/03/15 08:11:41;;;;;;;20.23;3.05;;;;;;;;;;5021498;28;20030;-68
2023/03/15 08:14:06;;;;;;;14.32;2.28;;;;;;;;;;5017138;28;20273;-69
2023/03/15 08:16:31;;;;;;;18.50;2.40;;;;;;;;;;5013062;28;20288;-68
2023/03/15 08:18:57;;;;;;;19.10;2.60;;;;;;;;;;5008583;28;20037;-69
2023/03/15 08:21:22;;;;;;;20.02;2.95;;;;;;;;;;5015672;28;20159;-70
2023/03/15 08:23:47;;;;;;;11.98;1.98;;;;;;;;;;5008368;28;20034;-70
2023/03/15 08:26:12;;;;;;;17.17;2.15;;;;;;;;;;5012569;28;20394;-67
2023/03/15 08:28:37;;;;;;;16.30;1.92;;;;;;;;;;5023597;28;20030;-68
2023/03/15 08:31:06;;;;;;;20.35;2.63;;;;;;;;;;5003011;28;20037;-69
2023/03/15 08:33:32;;;;;;;22.85;2.65;;;;;;;;;;5008438;28;20034;-69
2023/03/15 08:35:57;;;;;;;15.05;2.63;;;;;;;;;;5007293;28;20038;-68
2023/03/15 08:38:26;;;;;;;15.27;2.50;;;;;;;;;;5012039;28;20683;-69
2023/03/15 08:40:55;;;;;;;16.30;2.45;;;;;;;;;;5014139;28;20124;-69
2023/03/15 08:43:21;;;;;;;18.08;2.97;;;;;;;;;;5009133;28;20561;-69
2023/03/15 08:45:47;;;;;;;24.48;2.30;;;;;;;;;;5014340;28;20042;-70
2023/03/15 08:48:14;;;;;;;17.55;3.75;;;;;;;;;;5003873;28;20036;-69
2023/03/15 08:50:40;;;;;;;17.08;2.40;;;;;;;;;;5003955;28;20041;-69
2023/03/15 08:53:05;;;;;;;15.70;1.67;;;;;;;;;;5000252;28;20148;-69
2023/03/15 08:55:30;;;;;;;14.70;2.35;;;;;;;;;;4999981;28;20530;-69
2023/03/15 08:57:55;;;;;;;18.85;2.67;;;;;;;;;;5016565;28;20061;-69
2023/03/15 09:00:26;;;;;;;14.43;3.05;;;;;;;;;;5016196;28;20094;-69
2023/03/15 09:02:52;;;;;;;13.23;2.25;;;;;;;;;;4999412;28;20502;-71
2023/03/15 09:05:17;;;;;;;11.90;2.25;;;;;;;;;;4989641;28;20034;-69
2023/03/15 09:07:44;;;;;;;19.98;2.55;;;;;;;;;;4985215;28;20035;-69
2023/03/15 09:10:12;;;;;;;12.60;2.17;;;;;;;;;;4989842;28;20063;-67
2023/03/15 09:12:37;;;;;;;9.55;2.30;;;;;;;;;;4999110;28;20060;-70
2023/03/15 09:15:02;;;;;;;10.95;1.88;;;;;;;;;;5024748;28;20145;-70
2023/03/15 09:17:28;;;;;;;11.68;1.60;;;;;;;;;;4983558;28;20030;-73
2023/03/15 09:19:53;;;;;;;6.60;1.50;;;;;;;;;;4986934;28;20137;-72
2023/03/15 09:22:21;;;;;;;8.98;1.30;;;;;;;;;;4996128;28;20147;-71
2023/03/15 09:24:46;;;;;;;9.27;1.60;;;;;;;;;;5002570;28;20121;-71
2023/03/15 09:27:12;;;;;;;9.23;1.60;;;;;;;;;;5002532;28;20034;-73
2023/03/15 09:29:39;;;;;;;11.13;1.85;;;;;;;;;;5008074;28;20038;-72
2023/03/15 09:32:04;;;;;;;10.82;1.73;;;;;;;;;;5008828;28;20049;-73
2023/03/15 09:34:32;;;;;;;10.43;2.05;;;;;;;;;;5000761;28;20042;-69
2023/03/15 09:36:57;;;;;;;10.25;2.42;;;;;;;;;;5005800;28;20184;-69
2023/03/15 09:39:23;;;;;;;11.38;2.90;;;;;;;;;;5007186;28;20402;-70
2023/03/15 09:41:51;;;;;;;10.05;2.97;;;;;;;;;;5024105;28;20042;-68
2023/03/15 09:44:16;;;;;;;11.65;2.10;;;;;;;;;;5000962;28;20038;-70
2023/03/15 09:46:56;;;;;;;6.70;1.98;;;;;;;;;;4985119;28;20029;-70
2023/03/15 09:49:44;;;;;;;8.68;1.55;;;;;;;;;;5009518;28;20038;-71
2023/03/15 09:52:21;;;;;;;6.07;1.38;;;;;;;;;;5004033;28;20033;-71
2023/03/15 09:54:53;;;;;;;9.18;1.85;;;;;;;;;;5017742;28;20084;-71
2023/03/15 09:57:38;;;;;;;7.07;1.58;;;;;;;;;;5000654;28;20034;-71
2023/03/15 10:00:10;;;;;;;9.88;1.40;;;;;;;;;;5008767;28;20045;-71
2023/03/15 10:02:38;;;;;;;11.85;1.70;;;;;;;;;;5015559;28;20697;-71
2023/03/15 10:05:09;;;;;;;9.85;1.45;;;;;;;;;;5009327;28;20771;-70
2023/03/15 10:07:35;;;;;;;8.07;1.90;;;;;;;;;;5014218;28;20033;-71
2023/03/15 10:10:03;;;;;;;9.75;1.48;;;;;;;;;;5038819;28;20044;-71
2023/03/15 10:12:32;;;;;;;11.90;1.98;;;;;;;;;;5006416;28;20519;-71
2023/03/15 10:15:11;;;;;;;10.43;1.83;;;;;;;;;;5014130;28;20058;-71
2023/03/15 10:17:57;;;;;;;10.02;1.55;;;;;;;;;;4991807;28;20060;-72
2023/03/15 10:20:26;;;;;;;13.38;1.60;;;;;;;;;;4997419;28;20049;-70
2023/03/15 10:22:57;;;;;;;12.70;1.90;;;;;;;;;;5008145;28;20041;-69
2023/03/15 10:25:24;;;;;;;8.88;1.35;;;;;;;;;;4997953;28;20065;-68
2023/03/15 10:27:52;;;;;;;9.50;1.50;;;;;;;;;;4990526;28;20131;-72
2023/03/15 10:30:23;;;;;;;13.82;2.70;;;;;;;;;;5000751;28;20091;-70
2023/03/15 10:32:51;;;;;;;13.95;2.05;;;;;;;;;;5007719;28;20042;-71
2023/03/15 10:35:20;;;;;;;11.88;1.65;;;;;;;;;;5010043;28;20050;-69
2023/03/15 10:37:48;;;;;;;13.40;1.98;;;;;;;;;;5007440;28;20056;-70
2023/03/15 10:40:15;;;;;;;9.98;1.80;;;;;;;;;;5011273;28;20045;-69
2023/03/15 10:42:43;;;;;;;11.43;1.98;;;;;;;;;;5039578;28;20042;-68
2023/03/15 10:45:11;;;;;;;11.02;1.40;;;;;;;;;;5007558;28;20061;-70
2023/03/15 10:47:42;;;;;;;11.30;1.77;;;;;;;;;;5041422;28;20120;-70
2023/03/15 10:50:18;;;;;;;8.02;1.95;;;;;;;;;;5008448;28;20047;-70
2023/03/15 10:52:44;;;;;;;13.00;2.08;;;;;;;;;;5005271;28;20040;-69
2023/03/15 10:55:11;;;;;;;9.77;1.52;;;;;;;;;;5010733;28;20061;-69
2023/03/15 10:57:38;;;;;;;11.88;1.85;;;;;;;;;;5012833;28;20037;-69
2023/03/15 11:00:09;;;;;;;10.90;1.70;;;;;;;;;;5004543;28;20132;-69
2023/03/15 11:02:34;;;;;;;7.88;1.58;;;;;;;;;;5000356;28;20049;-67
2023/03/15 11:05:00;;;;;;;15.65;2.20;;;;;;;;;;5004719;28;20042;-70
2023/03/15 11:07:25;;;;;;;13.73;1.75;;;;;;;;;;5007689;28;20033;-69
2023/03/15 11:09:55;;;;;;;10.73;1.55;;;;;;;;;;5010146;28;20069;-69
2023/03/15 11:12:22;;;;;;;8.20;1.42;;;;;;;;;;5024076;28;20041;-69
2023/03/15 11:14:49;;;;;;;9.65;1.60;;;;;;;;;;5004086;28;20716;-70
2023/03/15 11:17:20;;;;;;;5.25;1.23;;;;;;;;;;5011616;28;20025;-70
2023/03/15 11:19:55;;;;;;;9.90;1.70;;;;;;;;;;5007927;28;20921;-69
2023/03/15 11:22:21;;;;;;;10.68;1.48;;;;;;;;;;4996172;28;20033;-70
2023/03/15 11:28:21;;;;;;;10.73;2.03;;;;;;;;;;4980902;28;20150;-70
2023/03/15 11:30:47;;;;;;;10.68;1.67;;;;;;;;;;4993215;28;20034;-69
2023/03/15 11:33:26;;;;;;;10.60;1.60;;;;;;;;;;4995068;28;20151;-70
2023/03/15 11:35:51;;;;;;;10.05;1.73;;;;;;;;;;4986795;28;20469;-69
2023/03/15 11:38:27;;;;;;;10.20;1.60;;;;;;;;;;4988582;28;20131;-68
2023/03/15 11:40:55;;;;;;;11.70;2.13;;;;;;;;;;5005688;28;20057;-69
2023/03/15 11:43:23;;;;;;;11.68;1.80;;;;;;;;;;4990802;28;20647;-70
2023/03/15 11:46:09;;;;;;;13.38;1.95;;;;;;;;;;5010222;28;20029;-70
2023/03/15 11:48:53;;;;;;;9.50;2.20;;;;;;;;;;4991299;28;20034;-69
2023/03/15 11:51:18;;;;;;;7.90;1.77;;;;;;;;;;5002101;28;20053;-71
2023/03/15 11:53:54;;;;;;;13.02;1.80;;;;;;;;;;4964022;28;20114;-72
2023/03/15 11:56:26;;;;;;;6.75;1.77;;;;;;;;;;4989103;28;20037;-70
2023/03/15 11:59:05;;;;;;;10.93;2.25;;;;;;;;;;5005750;28;20091;-71
2023/03/15 12:01:32;;;;;;;9.98;2.38;;;;;;;;;;4991921;28;20045;-71
2023/03/15 12:04:33;;;;;;;12.52;2.40;;;;;;;;;;4991738;28;20037;-73
2023/03/15 12:07:02;;;;;;;7.03;2.00;;;;;;;;;;4925428;28;20135;-71
2023/03/15 12:09:32;;;;;;;17.02;2.50;;;;;;;;;;4979075;28;20061;-71
2023/03/15 12:11:59;;;;;;;11.13;2.13;;;;;;;;;;5007412;28;20037;-73
2023/03/15 12:14:27;;;;;;;8.85;2.35;;;;;;;;;;4986698;28;20983;-74
2023/03/15 12:17:13;;;;;;;9.43;2.00;;;;;;;;;;4986832;28;20125;-72
2023/03/15 12:19:39;;;;;;;8.32;1.92;;;;;;;;;;4996541;28;20052;-71
2023/03/15 12:22:12;;;;;;;8.13;1.65;;;;;;;;;;4986860;28;20025;-71
2023/03/15 12:24:38;;;;;;;9.20;1.50;;;;;;;;;;4988551;28;20033;-72
2023/03/15 12:27:30;;;;;;;7.22;1.30;;;;;;;;;;4987906;28;20034;-69
2023/03/15 12:29:59;;;;;;;8.52;1.63;;;;;;;;;;4968348;28;20061;-70
2023/03/15 12:32:26;;;;;;;7.47;1.40;;;;;;;;;;4974780;28;20038;-74
2023/03/15 12:34:52;;;;;;;10.70;1.55;;;;;;;;;;4965164;28;20035;-71
2023/03/15 12:37:23;;;;;;;6.80;1.35;;;;;;;;;;4968495;28;20193;-72
2023/03/15 12:39:58;;;;;;;8.55;1.50;;;;;;;;;;4999750;28;20100;-75
2023/03/15 12:42:41;;;;;;;9.57;1.58;;;;;;;;;;4967793;28;20129;-71
2023/03/15 12:45:16;;;;;;;10.25;1.48;;;;;;;;;;4968759;28;21870;-78
2023/03/15 12:47:50;;;;;;;9.75;1.55;;;;;;;;;;4997010;28;20068;-71
2023/03/15 12:50:34;;;;;;;8.98;1.42;;;;;;;;;;4991005;28;20179;-76
2023/03/15 12:53:00;;;;;;;8.00;2.00;;;;;;;;;;4988533;28;20550;-76
2023/03/15 12:55:31;;;;;;;5.90;1.42;;;;;;;;;;4990758;28;20046;-75
2023/03/15 12:57:58;;;;;;;8.07;1.40;;;;;;;;;;4986709;28;20041;-76
2023/03/15 13:00:29;;;;;;;12.93;1.70;;;;;;;;;;5019458;28;20142;-75
2023/03/15 13:03:05;;;;;;;13.25;1.85;;;;;;;;;;4987392;28;20121;-73
2023/03/15 13:05:35;;;;;;;8.38;1.50;;;;;;;;;;4988570;28;20060;-77
2023/03/15 13:08:19;;;;;;;8.43;1.48;;;;;;;;;;4987277;28;20045;-77
2023/03/15 13:11:03;;;;;;;7.00;1.77;;;;;;;;;;4988463;28;20189;-76
2023/03/15 13:13:34;;;;;;;10.00;1.30;;;;;;;;;;4987050;28;20121;-77
2023/03/15 13:16:14;;;;;;;8.15;1.40;;;;;;;;;;4989252;28;20041;-78
2023/03/15 13:18:51;;;;;;;9.55;1.63;;;;;;;;;;4988999;28;20833;-75
2023/03/15 13:21:17;;;;;;;9.45;1.67;;;;;;;;;;4987062;28;20042;-78
2023/03/15 13:23:43;;;;;;;11.27;1.90;;;;;;;;;;4959857;28;22379;-75
2023/03/15 13:26:16;;;;;;;7.90;1.73;;;;;;;;;;4983488;28;20081;-76
2023/03/15 13:28:48;;;;;;;9.55;1.50;;;;;;;;;;4988309;28;20050;-74
2023/03/15 13:31:16;;;;;;;9.63;1.60;;;;;;;;;;4971728;28;22318;-78
2023/03/15 13:33:45;;;;;;;7.75;1.63;;;;;;;;;;4977393;28;20129;-75
2023/03/15 13:36:13;;;;;;;6.35;1.73;;;;;;;;;;4968790;28;21098;-77
2023/03/15 13:38:39;;;;;;;5.43;1.50;;;;;;;;;;4968614;28;20136;-75
2023/03/15 13:41:05;;;;;;;6.63;1.30;;;;;;;;;;4968820;28;20503;-76
2023/03/15 13:43:34;;;;;;;9.13;1.40;;;;;;;;;;4963981;28;20038;-76
2023/03/15 13:46:00;;;;;;;9.77;1.48;;;;;;;;;;4966250;28;20713;-74
2023/03/15 13:48:28;;;;;;;9.23;1.40;;;;;;;;;;4969765;28;20200;-76
2023/03/15 13:50:56;;;;;;;16.52;1.60;;;;;;;;;;4967780;28;20102;-77
2023/03/15 13:53:25;;;;;;;7.63;1.83;;;;;;;;;;4957336;28;20116;-75
2023/03/15 13:55:52;;;;;;;10.80;1.70;;;;;;;;;;4947289;28;25314;-76
2023/03/15 13:58:22;;;;;;;8.13;1.40;;;;;;;;;;4965814;28;20049;-76
2023/03/15 14:00:47;;;;;;;7.53;1.38;;;;;;;;;;4966007;28;20064;-76
2023/03/15 14:03:15;;;;;;;8.25;1.88;;;;;;;;;;4966061;28;20120;-77
2023/03/15 14:05:45;;;;;;;8.02;1.23;;;;;;;;;;4981394;28;20092;-74
2023/03/15 14:08:20;;;;;;;13.25;1.55;;;;;;;;;;4969914;28;21786;-75
2023/03/15 14:11:01;;;;;;;11.52;1.52;;;;;;;;;;4964617;28;20076;-75
2023/03/15 14:13:33;;;;;;;6.45;1.20;;;;;;;;;;4967514;28;20522;-74
2023/03/15 14:16:03;;;;;;;8.50;1.60;;;;;;;;;;4967747;28;20547;-75
2023/03/15 14:18:31;;;;;;;8.82;1.55;;;;;;;;;;5000273;28;20088;-75
2023/03/15 14:20:59;;;;;;;12.55;1.73;;;;;;;;;;4968059;28;20151;-74
2023/03/15 14:23:25;;;;;;;3.65;1.10;;;;;;;;;;4998356;28;20044;-74
2023/03/15 14:26:05;;;;;;;6.22;1.17;;;;;;;;;;4967543;28;20403;-75
2023/03/15 14:28:31;;;;;;;7.40;1.20;;;;;;;;;;4967542;28;20091;-75
2023/03/15 14:30:57;;;;;;;9.85;1.30;;;;;;;;;;4998682;28;20447;-75
2023/03/15 14:33:25;;;;;;;7.38;1.25;;;;;;;;;;4966850;28;20567;-77
2023/03/15 14:35:58;;;;;;;6.38;1.20;;;;;;;;;;4966581;28;20190;-74
2023/03/15 14:38:31;;;;;;;7.65;1.52;;;;;;;;;;4967629;28;20220;-75
2023/03/15 14:41:09;;;;;;;7.63;1.67;;;;;;;;;;4966072;28;20510;-76
2023/03/15 14:43:34;;;;;;;6.80;1.48;;;;;;;;;;4966712;28;20052;-75
2023/03/15 14:46:04;;;;;;;8.35;1.65;;;;;;;;;;4967231;28;20030;-74
2023/03/15 14:48:32;;;;;;;6.53;1.40;;;;;;;;;;4964181;28;20034;-75